Tropical Cyclones
[Index]
Main Index Home Page Stock Weather Photos Extreme Storms Discussion Storm News and Storm Chasing Reports Tropical Cyclones / Hurricanes / Typhoons Weather Data and Links Wild Fires / Bushfires Weather Observation Techniques Weather Picture Catalogue Tornado Pictures and Reports Stock Video Footage and DVDs for sale
Season 1998-1999 Tropical Cyclone PETE Track Map
Season 1998-1999 Summaries (Operational Data): [AU] [SIO] [SPAC] [SH]
<<- Previous TC | 1998-1999 Season | Next TC ->>

click for intensity scale information  Lat/long Grid: Show Hide

 Date Labels: Show Hide

Operational Tropical Cyclone Data : JTWC Advisories

Name: PETE
Number: 9914

20 Jan 1999 06:00 UTC to 27 Jan 1999 18:00 UTC

    date/time    lat    long     hPa   cat  kts
1999-01-20 06   17.5   150.0     999                     
1999-01-21 00   15.0   149.0     996         25          
1999-01-21 06   15.3   148.1     999                     
1999-01-21 12   15.5   150.5     995         25          
1999-01-21 18   15.0   150.8     994         30          
1999-01-22 00   15.2   152.0     994         30          
1999-01-22 06   16.5   152.7     990         30          
1999-01-22 12   17.0   153.1     990    1    35          
1999-01-22 18   18.1   154.8     990    1    35          
1999-01-23 00   19.5   155.7     987    1    40          
1999-01-23 06   20.5   157.5     985    2    50          
1999-01-23 12   21.9   158.7     985    2    50          
1999-01-23 18   22.4   159.9     985    2    50          
1999-01-24 00   24.2   160.8     985    2    50          
1999-01-24 06   24.4   162.3     985    2    50          
1999-01-24 12   24.8   163.9     985    2    50          
1999-01-24 18   25.5   165.0     985    2    50          
1999-01-25 00   24.8   165.1     990    1    45          
1999-01-25 06   24.6   165.8     990    1    40          
1999-01-25 12   24.0   166.6     990    1    40          
1999-01-25 18   24.4   167.0     995    1    35          
1999-01-26 00   24.7   167.8     995    1    35          
1999-01-26 06   24.6   168.2     997         30          
1999-01-26 12   24.2   169.0     997    1    35          
1999-01-26 18   23.8   169.3     998    1    35          
1999-01-27 00   23.8   169.6    1000    1    35          
1999-01-27 06   23.9   169.7    1000    1    35          
1999-01-27 12   24.0   170.0    1000    1    35          
1999-01-27 18   24.1   169.4    1002    1    35          
Winds are 10-min average.

Tropical cyclone tracks developed by Michael Bath using operational warnings and advisories and Google Maps.


[Australian Severe Weather index] [Copyright Notice] [Email Contacts] [Search This Site] [Privacy Policy]
Document: tropical_cyclone_pete.htm Updated: 28 May 2013